<?xml version="1.0" encoding="UTF-8" standalone="no" ?>
<gpx xmlns="http://www.topografix.com/GPX/1/1" creator="" version="1.1" xmlns:xsi="http://www.w3.org/2001/XMLSchema-instance" xsi:schemaLocation="http://www.topografix.com/GPX/1/1 http://www.topografix.com/GPX/1/1/gpx.xsd">
 <trk>
  <name>ACTIVE LOG101435</name>
  <trkseg>
   <trkpt lat="53.076558" lon="8.896344">
    <ele>-48.175</ele>
    <time>2012-05-17T08:14:35Z</time>
   </trkpt>
   <trkpt lat="53.076558" lon="8.896344">
    <ele>-48.175</ele>
    <time>2012-05-17T08:14:36Z</time>
   </trkpt>
  </trkseg>
 </trk>
 <trk>
  <name>ACTIVE LOG101623</name>
  <trkseg>
   <trkpt lat="53.116251" lon="8.895987">
    <ele>-48.206</ele>
    <time>2012-05-17T08:16:23Z</time>
   </trkpt>
   <trkpt lat="53.116155" lon="8.895690">
    <ele>-44.100</ele>
    <time>2012-05-17T08:18:11Z</time>
   </trkpt>
   <trkpt lat="53.116155" lon="8.895692">
    <ele>-40.875</ele>
    <time>2012-05-17T08:18:13Z</time>
   </trkpt>
   <trkpt lat="53.116155" lon="8.895693">
    <ele>-36.544</ele>
    <time>2012-05-17T08:18:16Z</time>
   </trkpt>
   <trkpt lat="53.116155" lon="8.895693">
    <ele>-32.352</ele>
    <time>2012-05-17T08:18:19Z</time>
   </trkpt>
   <trkpt lat="53.116155" lon="8.895692">
    <ele>-28.850</ele>
    <time>2012-05-17T08:18:22Z</time>
   </trkpt>
   <trkpt lat="53.116155" lon="8.895692">
    <ele>-25.443</ele>
    <time>2012-05-17T08:18:25Z</time>
   </trkpt>
   <trkpt lat="53.116154" lon="8.895692">
    <ele>-22.341</ele>
    <time>2012-05-17T08:18:28Z</time>
   </trkpt>
   <trkpt lat="53.116154" lon="8.895691">
    <ele>-19.077</ele>
    <time>2012-05-17T08:18:32Z</time>
   </trkpt>
   <trkpt lat="53.116154" lon="8.895691">
    <ele>-15.723</ele>
    <time>2012-05-17T08:18:36Z</time>
   </trkpt>
   <trkpt lat="53.116155" lon="8.895692">
    <ele>-12.312</ele>
    <time>2012-05-17T08:18:41Z</time>
   </trkpt>
   <trkpt lat="53.116155" lon="8.895692">
    <ele>-12.249</ele>
    <time>2012-05-17T08:18:42Z</time>
   </trkpt>
   <trkpt lat="53.116155" lon="8.895692">
    <ele>-9.176</ele>
    <time>2012-05-17T08:18:47Z</time>
   </trkpt>
   <trkpt lat="53.116155" lon="8.895692">
    <ele>-7.017</ele>
    <time>2012-05-17T08:18:52Z</time>
   </trkpt>
   <trkpt lat="53.116155" lon="8.895692">
    <ele>-3.861</ele>
    <time>2012-05-17T08:19:02Z</time>
   </trkpt>
   <trkpt lat="53.116155" lon="8.895692">
    <ele>-2.912</ele>
    <time>2012-05-17T08:19:04Z</time>
   </trkpt>
   <trkpt lat="53.116155" lon="8.895691">
    <ele>0.165</ele>
    <time>2012-05-17T08:19:21Z</time>
   </trkpt>
   <trkpt lat="53.116155" lon="8.895691">
    <ele>3.195</ele>
    <time>2012-05-17T08:19:44Z</time>
   </trkpt>
   <trkpt lat="53.116265" lon="8.895969">
    <ele>5.128</ele>
    <time>2012-05-17T08:23:02Z</time>
   </trkpt>
   <trkpt lat="53.116307" lon="8.895946">
    <ele>2.558</ele>
    <time>2012-05-17T08:23:17Z</time>
   </trkpt>
  </trkseg>
 </trk>
 <trk>
  <name>ACTIVE LOG102353</name>
  <trkseg>
   <trkpt lat="53.116328" lon="8.895910">
    <ele>2.543</ele>
    <time>2012-05-17T08:23:53Z</time>
   </trkpt>
  </trkseg>
 </trk>
 <trk>
  <name>ACTIVE LOG102416</name>
  <trkseg>
   <trkpt lat="53.116466" lon="8.896419">
    <ele>2.567</ele>
    <time>2012-05-17T08:24:16Z</time>
   </trkpt>
   <trkpt lat="53.115986" lon="8.896295">
    <ele>3.320</ele>
    <time>2012-05-17T08:24:27Z</time>
   </trkpt>
   <trkpt lat="53.115960" lon="8.896155">
    <ele>4.007</ele>
    <time>2012-05-17T08:24:35Z</time>
   </trkpt>
   <trkpt lat="53.115994" lon="8.896088">
    <ele>2.588</ele>
    <time>2012-05-17T08:24:44Z</time>
   </trkpt>
   <trkpt lat="53.115990" lon="8.896110">
    <ele>2.876</ele>
    <time>2012-05-17T08:24:46Z</time>
   </trkpt>
   <trkpt lat="53.116051" lon="8.896050">
    <ele>3.957</ele>
    <time>2012-05-17T08:24:54Z</time>
   </trkpt>
   <trkpt lat="53.116053" lon="8.896069">
    <ele>3.673</ele>
    <time>2012-05-17T08:25:17Z</time>
   </trkpt>
   <trkpt lat="53.116062" lon="8.896045">
    <ele>3.892</ele>
    <time>2012-05-17T08:25:34Z</time>
   </trkpt>
   <trkpt lat="53.116093" lon="8.895990">
    <ele>3.867</ele>
    <time>2012-05-17T08:25:46Z</time>
   </trkpt>
   <trkpt lat="53.116105" lon="8.895906">
    <ele>2.096</ele>
    <time>2012-05-17T08:25:58Z</time>
   </trkpt>
   <trkpt lat="53.116157" lon="8.895822">
    <ele>1.874</ele>
    <time>2012-05-17T08:26:17Z</time>
   </trkpt>
   <trkpt lat="53.116294" lon="8.896057">
    <ele>1.975</ele>
    <time>2012-05-17T08:26:31Z</time>
   </trkpt>
   <trkpt lat="53.116106" lon="8.896138">
    <ele>2.014</ele>
    <time>2012-05-17T08:26:44Z</time>
   </trkpt>
   <trkpt lat="53.115881" lon="8.896227">
    <ele>1.874</ele>
    <time>2012-05-17T08:27:01Z</time>
   </trkpt>
   <trkpt lat="53.115765" lon="8.896249">
    <ele>2.078</ele>
    <time>2012-05-17T08:27:25Z</time>
   </trkpt>
   <trkpt lat="53.115853" lon="8.896221">
    <ele>1.794</ele>
    <time>2012-05-17T08:27:43Z</time>
   </trkpt>
   <trkpt lat="53.115865" lon="8.896364">
    <ele>1.966</ele>
    <time>2012-05-17T08:29:13Z</time>
   </trkpt>
   <trkpt lat="53.115864" lon="8.896392">
    <ele>3.342</ele>
    <time>2012-05-17T08:29:21Z</time>
   </trkpt>
   <trkpt lat="53.115924" lon="8.896329">
    <ele>3.078</ele>
    <time>2012-05-17T08:29:45Z</time>
   </trkpt>
   <trkpt lat="53.115946" lon="8.896289">
    <ele>3.762</ele>
    <time>2012-05-17T08:30:08Z</time>
   </trkpt>
   <trkpt lat="53.115946" lon="8.896272">
    <ele>2.692</ele>
    <time>2012-05-17T08:30:19Z</time>
   </trkpt>
   <trkpt lat="53.115959" lon="8.896300">
    <ele>2.246</ele>
    <time>2012-05-17T08:30:28Z</time>
   </trkpt>
   <trkpt lat="53.115973" lon="8.896307">
    <ele>2.680</ele>
    <time>2012-05-17T08:30:35Z</time>
   </trkpt>
   <trkpt lat="53.116009" lon="8.896321">
    <ele>2.365</ele>
    <time>2012-05-17T08:30:50Z</time>
   </trkpt>
   <trkpt lat="53.116021" lon="8.896322">
    <ele>2.318</ele>
    <time>2012-05-17T08:31:03Z</time>
   </trkpt>
   <trkpt lat="53.116019" lon="8.896321">
    <ele>2.160</ele>
    <time>2012-05-17T08:31:15Z</time>
   </trkpt>
   <trkpt lat="53.116020" lon="8.896319">
    <ele>0.426</ele>
    <time>2012-05-17T08:31:18Z</time>
   </trkpt>
   <trkpt lat="53.116023" lon="8.896316">
    <ele>2.478</ele>
    <time>2012-05-17T08:31:20Z</time>
   </trkpt>
   <trkpt lat="53.116031" lon="8.896306">
    <ele>3.981</ele>
    <time>2012-05-17T08:31:31Z</time>
   </trkpt>
   <trkpt lat="53.116057" lon="8.896287">
    <ele>2.190</ele>
    <time>2012-05-17T08:31:33Z</time>
   </trkpt>
   <trkpt lat="53.116057" lon="8.896280">
    <ele>2.508</ele>
    <time>2012-05-17T08:31:44Z</time>
   </trkpt>
   <trkpt lat="53.116057" lon="8.896293">
    <ele>2.097</ele>
    <time>2012-05-17T08:31:57Z</time>
   </trkpt>
   <trkpt lat="53.116068" lon="8.896287">
    <ele>2.545</ele>
    <time>2012-05-17T08:32:01Z</time>
   </trkpt>
   <trkpt lat="53.116260" lon="8.896412">
    <ele>1.885</ele>
    <time>2012-05-17T08:32:10Z</time>
   </trkpt>
   <trkpt lat="53.116585" lon="8.896680">
    <ele>1.700</ele>
    <time>2012-05-17T08:32:20Z</time>
   </trkpt>
   <trkpt lat="53.116857" lon="8.896950">
    <ele>1.398</ele>
    <time>2012-05-17T08:32:28Z</time>
   </trkpt>
   <trkpt lat="53.117327" lon="8.897421">
    <ele>1.534</ele>
    <time>2012-05-17T08:32:41Z</time>
   </trkpt>
   <trkpt lat="53.117438" lon="8.897532">
    <ele>1.929</ele>
    <time>2012-05-17T08:32:44Z</time>
   </trkpt>
   <trkpt lat="53.117642" lon="8.897736">
    <ele>2.085</ele>
    <time>2012-05-17T08:32:51Z</time>
   </trkpt>
   <trkpt lat="53.117781" lon="8.897679">
    <ele>1.833</ele>
    <time>2012-05-17T08:32:57Z</time>
   </trkpt>
   <trkpt lat="53.117917" lon="8.897508">
    <ele>1.401</ele>
    <time>2012-05-17T08:33:03Z</time>
   </trkpt>
   <trkpt lat="53.118091" lon="8.897270">
    <ele>1.872</ele>
    <time>2012-05-17T08:33:10Z</time>
   </trkpt>
   <trkpt lat="53.118116" lon="8.897208">
    <ele>1.902</ele>
    <time>2012-05-17T08:33:11Z</time>
   </trkpt>
   <trkpt lat="53.118467" lon="8.897252">
    <ele>2.526</ele>
    <time>2012-05-17T08:33:18Z</time>
   </trkpt>
   <trkpt lat="53.118702" lon="8.897465">
    <ele>1.888</ele>
    <time>2012-05-17T08:33:24Z</time>
   </trkpt>
   <trkpt lat="53.118820" lon="8.897572">
    <ele>1.536</ele>
    <time>2012-05-17T08:33:27Z</time>
   </trkpt>
   <trkpt lat="53.118999" lon="8.897735">
    <ele>1.513</ele>
    <time>2012-05-17T08:33:31Z</time>
   </trkpt>
   <trkpt lat="53.119307" lon="8.898014">
    <ele>1.986</ele>
    <time>2012-05-17T08:33:38Z</time>
   </trkpt>
   <trkpt lat="53.119911" lon="8.898565">
    <ele>1.845</ele>
    <time>2012-05-17T08:33:51Z</time>
   </trkpt>
   <trkpt lat="53.120440" lon="8.899076">
    <ele>1.354</ele>
    <time>2012-05-17T08:34:02Z</time>
   </trkpt>
   <trkpt lat="53.120893" lon="8.899482">
    <ele>2.283</ele>
    <time>2012-05-17T08:34:12Z</time>
   </trkpt>
   <trkpt lat="53.121402" lon="8.899799">
    <ele>1.566</ele>
    <time>2012-05-17T08:34:22Z</time>
   </trkpt>
   <trkpt lat="53.121662" lon="8.899887">
    <ele>2.010</ele>
    <time>2012-05-17T08:34:27Z</time>
   </trkpt>
   <trkpt lat="53.122003" lon="8.899934">
    <ele>2.226</ele>
    <time>2012-05-17T08:34:34Z</time>
   </trkpt>
   <trkpt lat="53.122375" lon="8.899973">
    <ele>1.165</ele>
    <time>2012-05-17T08:34:41Z</time>
   </trkpt>
   <trkpt lat="53.122521" lon="8.899988">
    <ele>1.690</ele>
    <time>2012-05-17T08:34:44Z</time>
   </trkpt>
   <trkpt lat="53.122920" lon="8.900036">
    <ele>1.253</ele>
    <time>2012-05-17T08:34:53Z</time>
   </trkpt>
   <trkpt lat="53.123048" lon="8.900063">
    <ele>1.018</ele>
    <time>2012-05-17T08:34:57Z</time>
   </trkpt>
   <trkpt lat="53.123337" lon="8.900139">
    <ele>0.785</ele>
    <time>2012-05-17T08:35:04Z</time>
   </trkpt>
   <trkpt lat="53.123538" lon="8.900197">
    <ele>1.509</ele>
    <time>2012-05-17T08:35:10Z</time>
   </trkpt>
   <trkpt lat="53.123785" lon="8.900247">
    <ele>0.989</ele>
    <time>2012-05-17T08:35:16Z</time>
   </trkpt>
   <trkpt lat="53.123930" lon="8.900213">
    <ele>1.242</ele>
    <time>2012-05-17T08:35:22Z</time>
   </trkpt>
   <trkpt lat="53.124050" lon="8.900185">
    <ele>1.690</ele>
    <time>2012-05-17T08:35:36Z</time>
   </trkpt>
   <trkpt lat="53.124111" lon="8.900170">
    <ele>1.158</ele>
    <time>2012-05-17T08:35:43Z</time>
   </trkpt>
   <trkpt lat="53.124450" lon="8.900235">
    <ele>1.900</ele>
    <time>2012-05-17T08:35:49Z</time>
   </trkpt>
   <trkpt lat="53.124676" lon="8.900115">
    <ele>1.601</ele>
    <time>2012-05-17T08:35:56Z</time>
   </trkpt>
   <trkpt lat="53.124733" lon="8.900084">
    <ele>1.483</ele>
    <time>2012-05-17T08:36:02Z</time>
   </trkpt>
   <trkpt lat="53.125033" lon="8.899977">
    <ele>1.017</ele>
    <time>2012-05-17T08:36:08Z</time>
   </trkpt>
   <trkpt lat="53.125537" lon="8.899729">
    <ele>1.131</ele>
    <time>2012-05-17T08:36:16Z</time>
   </trkpt>
   <trkpt lat="53.125981" lon="8.899559">
    <ele>1.313</ele>
    <time>2012-05-17T08:36:26Z</time>
   </trkpt>
   <trkpt lat="53.126150" lon="8.899495">
    <ele>0.949</ele>
    <time>2012-05-17T08:36:30Z</time>
   </trkpt>
   <trkpt lat="53.126396" lon="8.899395">
    <ele>1.361</ele>
    <time>2012-05-17T08:36:36Z</time>
   </trkpt>
   <trkpt lat="53.126689" lon="8.899311">
    <ele>1.493</ele>
    <time>2012-05-17T08:36:43Z</time>
   </trkpt>
   <trkpt lat="53.126991" lon="8.899251">
    <ele>1.316</ele>
    <time>2012-05-17T08:36:50Z</time>
   </trkpt>
   <trkpt lat="53.127133" lon="8.899227">
    <ele>1.255</ele>
    <time>2012-05-17T08:36:54Z</time>
   </trkpt>
   <trkpt lat="53.127322" lon="8.899129">
    <ele>2.029</ele>
    <time>2012-05-17T08:37:01Z</time>
   </trkpt>
   <trkpt lat="53.127451" lon="8.899102">
    <ele>1.604</ele>
    <time>2012-05-17T08:37:20Z</time>
   </trkpt>
   <trkpt lat="53.127595" lon="8.899104">
    <ele>1.387</ele>
    <time>2012-05-17T08:37:25Z</time>
   </trkpt>
   <trkpt lat="53.127824" lon="8.899119">
    <ele>1.562</ele>
    <time>2012-05-17T08:37:31Z</time>
   </trkpt>
   <trkpt lat="53.127892" lon="8.899102">
    <ele>1.530</ele>
    <time>2012-05-17T08:37:33Z</time>
   </trkpt>
   <trkpt lat="53.128028" lon="8.899113">
    <ele>1.765</ele>
    <time>2012-05-17T08:37:37Z</time>
   </trkpt>
   <trkpt lat="53.128345" lon="8.899154">
    <ele>2.022</ele>
    <time>2012-05-17T08:37:44Z</time>
   </trkpt>
   <trkpt lat="53.128396" lon="8.899161">
    <ele>2.180</ele>
    <time>2012-05-17T08:37:45Z</time>
   </trkpt>
   <trkpt lat="53.128761" lon="8.899213">
    <ele>1.850</ele>
    <time>2012-05-17T08:37:53Z</time>
   </trkpt>
   <trkpt lat="53.129095" lon="8.899261">
    <ele>2.381</ele>
    <time>2012-05-17T08:37:59Z</time>
   </trkpt>
   <trkpt lat="53.129152" lon="8.899269">
    <ele>2.381</ele>
    <time>2012-05-17T08:38:00Z</time>
   </trkpt>
   <trkpt lat="53.129501" lon="8.899289">
    <ele>2.952</ele>
    <time>2012-05-17T08:38:07Z</time>
   </trkpt>
   <trkpt lat="53.129733" lon="8.899343">
    <ele>3.448</ele>
    <time>2012-05-17T08:38:12Z</time>
   </trkpt>
   <trkpt lat="53.129733" lon="8.899343">
    <ele>2.711</ele>
    <time>2012-05-17T08:39:18Z</time>
   </trkpt>
   <trkpt lat="53.129733" lon="8.899343">
    <ele>2.004</ele>
    <time>2012-05-17T08:39:28Z</time>
   </trkpt>
   <trkpt lat="53.129733" lon="8.899343">
    <ele>3.071</ele>
    <time>2012-05-17T08:39:42Z</time>
   </trkpt>
   <trkpt lat="53.129733" lon="8.899343">
    <ele>3.532</ele>
    <time>2012-05-17T08:40:28Z</time>
   </trkpt>
   <trkpt lat="53.129733" lon="8.899343">
    <ele>2.675</ele>
    <time>2012-05-17T08:40:44Z</time>
   </trkpt>
   <trkpt lat="53.129733" lon="8.899343">
    <ele>2.771</ele>
    <time>2012-05-17T08:40:58Z</time>
   </trkpt>
   <trkpt lat="53.129733" lon="8.899343">
    <ele>2.462</ele>
    <time>2012-05-17T08:41:12Z</time>
   </trkpt>
   <trkpt lat="53.129733" lon="8.899343">
    <ele>2.268</ele>
    <time>2012-05-17T08:41:26Z</time>
   </trkpt>
   <trkpt lat="53.129733" lon="8.899343">
    <ele>1.934</ele>
    <time>2012-05-17T08:41:59Z</time>
   </trkpt>
   <trkpt lat="53.129733" lon="8.899343">
    <ele>2.316</ele>
    <time>2012-05-17T08:42:34Z</time>
   </trkpt>
   <trkpt lat="53.129733" lon="8.899343">
    <ele>1.943</ele>
    <time>2012-05-17T08:43:23Z</time>
   </trkpt>
   <trkpt lat="53.129733" lon="8.899343">
    <ele>1.511</ele>
    <time>2012-05-17T08:44:12Z</time>
   </trkpt>
   <trkpt lat="53.129733" lon="8.899343">
    <ele>1.717</ele>
    <time>2012-05-17T08:44:49Z</time>
   </trkpt>
   <trkpt lat="53.129733" lon="8.899343">
    <ele>0.881</ele>
    <time>2012-05-17T08:46:16Z</time>
   </trkpt>
   <trkpt lat="53.129733" lon="8.899343">
    <ele>0.286</ele>
    <time>2012-05-17T08:47:46Z</time>
   </trkpt>
   <trkpt lat="53.129733" lon="8.899343">
    <ele>0.813</ele>
    <time>2012-05-17T08:47:54Z</time>
   </trkpt>
   <trkpt lat="53.129733" lon="8.899343">
    <ele>0.632</ele>
    <time>2012-05-17T08:48:01Z</time>
   </trkpt>
   <trkpt lat="53.129497" lon="8.899484">
    <ele>0.426</ele>
    <time>2012-05-17T08:48:07Z</time>
   </trkpt>
   <trkpt lat="53.129659" lon="8.899262">
    <ele>0.507</ele>
    <time>2012-05-17T08:48:10Z</time>
   </trkpt>
   <trkpt lat="53.129733" lon="8.899248">
    <ele>0.296</ele>
    <time>2012-05-17T08:48:15Z</time>
   </trkpt>
   <trkpt lat="53.129733" lon="8.899248">
    <ele>0.808</ele>
    <time>2012-05-17T08:48:23Z</time>
   </trkpt>
   <trkpt lat="53.129733" lon="8.899248">
    <ele>0.616</ele>
    <time>2012-05-17T08:48:30Z</time>
   </trkpt>
   <trkpt lat="53.130179" lon="8.898904">
    <ele>0.288</ele>
    <time>2012-05-17T08:48:38Z</time>
   </trkpt>
   <trkpt lat="53.130419" lon="8.898840">
    <ele>0.982</ele>
    <time>2012-05-17T08:48:48Z</time>
   </trkpt>
   <trkpt lat="53.131009" lon="8.898643">
    <ele>0.864</ele>
    <time>2012-05-17T08:49:01Z</time>
   </trkpt>
   <trkpt lat="53.131264" lon="8.898558">
    <ele>0.663</ele>
    <time>2012-05-17T08:49:10Z</time>
   </trkpt>
   <trkpt lat="53.131571" lon="8.898456">
    <ele>0.337</ele>
    <time>2012-05-17T08:49:19Z</time>
   </trkpt>
   <trkpt lat="53.132093" lon="8.898267">
    <ele>-0.682</ele>
    <time>2012-05-17T08:49:32Z</time>
   </trkpt>
   <trkpt lat="53.132586" lon="8.898089">
    <ele>0.220</ele>
    <time>2012-05-17T08:49:44Z</time>
   </trkpt>
   <trkpt lat="53.133049" lon="8.897987">
    <ele>0.065</ele>
    <time>2012-05-17T08:49:55Z</time>
   </trkpt>
   <trkpt lat="53.133353" lon="8.898011">
    <ele>-0.385</ele>
    <time>2012-05-17T08:50:02Z</time>
   </trkpt>
   <trkpt lat="53.133777" lon="8.898151">
    <ele>-0.064</ele>
    <time>2012-05-17T08:50:13Z</time>
   </trkpt>
   <trkpt lat="53.134009" lon="8.898241">
    <ele>0.843</ele>
    <time>2012-05-17T08:50:22Z</time>
   </trkpt>
   <trkpt lat="53.134147" lon="8.898294">
    <ele>-0.173</ele>
    <time>2012-05-17T08:50:29Z</time>
   </trkpt>
   <trkpt lat="53.134282" lon="8.898346">
    <ele>-0.536</ele>
    <time>2012-05-17T08:50:35Z</time>
   </trkpt>
   <trkpt lat="53.134525" lon="8.898450">
    <ele>-1.002</ele>
    <time>2012-05-17T08:50:42Z</time>
   </trkpt>
   <trkpt lat="53.134689" lon="8.898518">
    <ele>-1.920</ele>
    <time>2012-05-17T08:50:49Z</time>
   </trkpt>
   <trkpt lat="53.134689" lon="8.898518">
    <ele>-1.493</ele>
    <time>2012-05-17T08:50:55Z</time>
   </trkpt>
   <trkpt lat="53.134900" lon="8.898550">
    <ele>-1.418</ele>
    <time>2012-05-17T08:51:03Z</time>
   </trkpt>
   <trkpt lat="53.134919" lon="8.898553">
    <ele>-1.376</ele>
    <time>2012-05-17T08:51:04Z</time>
   </trkpt>
   <trkpt lat="53.135098" lon="8.898937">
    <ele>-1.238</ele>
    <time>2012-05-17T08:51:14Z</time>
   </trkpt>
   <trkpt lat="53.135332" lon="8.899284">
    <ele>-1.285</ele>
    <time>2012-05-17T08:51:23Z</time>
   </trkpt>
   <trkpt lat="53.135508" lon="8.899545">
    <ele>-1.331</ele>
    <time>2012-05-17T08:51:30Z</time>
   </trkpt>
   <trkpt lat="53.135715" lon="8.899853">
    <ele>-0.857</ele>
    <time>2012-05-17T08:51:38Z</time>
   </trkpt>
   <trkpt lat="53.136005" lon="8.900294">
    <ele>-1.861</ele>
    <time>2012-05-17T08:51:49Z</time>
   </trkpt>
   <trkpt lat="53.136172" lon="8.900548">
    <ele>-2.119</ele>
    <time>2012-05-17T08:51:58Z</time>
   </trkpt>
   <trkpt lat="53.136326" lon="8.900769">
    <ele>-1.466</ele>
    <time>2012-05-17T08:52:05Z</time>
   </trkpt>
   <trkpt lat="53.136553" lon="8.901089">
    <ele>-1.386</ele>
    <time>2012-05-17T08:52:14Z</time>
   </trkpt>
   <trkpt lat="53.136827" lon="8.901483">
    <ele>-1.644</ele>
    <time>2012-05-17T08:52:23Z</time>
   </trkpt>
   <trkpt lat="53.136989" lon="8.901797">
    <ele>-2.367</ele>
    <time>2012-05-17T08:52:30Z</time>
   </trkpt>
   <trkpt lat="53.137025" lon="8.901869">
    <ele>-1.907</ele>
    <time>2012-05-17T08:52:32Z</time>
   </trkpt>
   <trkpt lat="53.137156" lon="8.902122">
    <ele>-2.256</ele>
    <time>2012-05-17T08:52:39Z</time>
   </trkpt>
   <trkpt lat="53.137273" lon="8.902028">
    <ele>-3.136</ele>
    <time>2012-05-17T08:52:44Z</time>
   </trkpt>
   <trkpt lat="53.137527" lon="8.901651">
    <ele>-3.812</ele>
    <time>2012-05-17T08:52:54Z</time>
   </trkpt>
   <trkpt lat="53.137633" lon="8.901478">
    <ele>-2.425</ele>
    <time>2012-05-17T08:53:02Z</time>
   </trkpt>
   <trkpt lat="53.137648" lon="8.901454">
    <ele>-2.697</ele>
    <time>2012-05-17T08:53:03Z</time>
   </trkpt>
   <trkpt lat="53.137734" lon="8.901314">
    <ele>-2.630</ele>
    <time>2012-05-17T08:53:14Z</time>
   </trkpt>
   <trkpt lat="53.137734" lon="8.901314">
    <ele>-2.788</ele>
    <time>2012-05-17T08:53:23Z</time>
   </trkpt>
   <trkpt lat="53.137734" lon="8.901314">
    <ele>-2.532</ele>
    <time>2012-05-17T08:53:30Z</time>
   </trkpt>
   <trkpt lat="53.137923" lon="8.901254">
    <ele>-3.376</ele>
    <time>2012-05-17T08:53:37Z</time>
   </trkpt>
   <trkpt lat="53.138159" lon="8.901582">
    <ele>-2.978</ele>
    <time>2012-05-17T08:53:49Z</time>
   </trkpt>
   <trkpt lat="53.138440" lon="8.902013">
    <ele>-3.371</ele>
    <time>2012-05-17T08:54:03Z</time>
   </trkpt>
   <trkpt lat="53.138593" lon="8.902248">
    <ele>-3.247</ele>
    <time>2012-05-17T08:54:11Z</time>
   </trkpt>
   <trkpt lat="53.138876" lon="8.902684">
    <ele>-3.147</ele>
    <time>2012-05-17T08:54:26Z</time>
   </trkpt>
   <trkpt lat="53.138931" lon="8.902769">
    <ele>-3.291</ele>
    <time>2012-05-17T08:54:29Z</time>
   </trkpt>
   <trkpt lat="53.139182" lon="8.903153">
    <ele>-2.763</ele>
    <time>2012-05-17T08:54:40Z</time>
   </trkpt>
   <trkpt lat="53.139307" lon="8.903432">
    <ele>-2.862</ele>
    <time>2012-05-17T08:54:48Z</time>
   </trkpt>
   <trkpt lat="53.139415" lon="8.903680">
    <ele>-2.959</ele>
    <time>2012-05-17T08:54:55Z</time>
   </trkpt>
   <trkpt lat="53.139461" lon="8.903786">
    <ele>-3.052</ele>
    <time>2012-05-17T08:54:57Z</time>
   </trkpt>
   <trkpt lat="53.139639" lon="8.904195">
    <ele>-2.989</ele>
    <time>2012-05-17T08:55:08Z</time>
   </trkpt>
   <trkpt lat="53.139721" lon="8.904383">
    <ele>-3.103</ele>
    <time>2012-05-17T08:55:14Z</time>
   </trkpt>
   <trkpt lat="53.139848" lon="8.904676">
    <ele>-2.840</ele>
    <time>2012-05-17T08:55:22Z</time>
   </trkpt>
   <trkpt lat="53.139952" lon="8.904928">
    <ele>-2.982</ele>
    <time>2012-05-17T08:55:29Z</time>
   </trkpt>
   <trkpt lat="53.140101" lon="8.905320">
    <ele>-2.644</ele>
    <time>2012-05-17T08:55:39Z</time>
   </trkpt>
   <trkpt lat="53.140264" lon="8.905724">
    <ele>-3.040</ele>
    <time>2012-05-17T08:55:47Z</time>
   </trkpt>
   <trkpt lat="53.140422" lon="8.906092">
    <ele>-2.901</ele>
    <time>2012-05-17T08:55:56Z</time>
   </trkpt>
   <trkpt lat="53.140576" lon="8.906448">
    <ele>-2.955</ele>
    <time>2012-05-17T08:56:04Z</time>
   </trkpt>
   <trkpt lat="53.140764" lon="8.906895">
    <ele>-2.916</ele>
    <time>2012-05-17T08:56:13Z</time>
   </trkpt>
   <trkpt lat="53.140931" lon="8.907287">
    <ele>-3.212</ele>
    <time>2012-05-17T08:56:21Z</time>
   </trkpt>
   <trkpt lat="53.141107" lon="8.907626">
    <ele>-3.709</ele>
    <time>2012-05-17T08:56:29Z</time>
   </trkpt>
   <trkpt lat="53.141212" lon="8.907831">
    <ele>-2.714</ele>
    <time>2012-05-17T08:56:39Z</time>
   </trkpt>
   <trkpt lat="53.141581" lon="8.908079">
    <ele>-2.842</ele>
    <time>2012-05-17T08:56:46Z</time>
   </trkpt>
   <trkpt lat="53.141877" lon="8.908110">
    <ele>-3.038</ele>
    <time>2012-05-17T08:56:55Z</time>
   </trkpt>
   <trkpt lat="53.142099" lon="8.908094">
    <ele>-3.255</ele>
    <time>2012-05-17T08:57:01Z</time>
   </trkpt>
   <trkpt lat="53.142401" lon="8.908114">
    <ele>-2.774</ele>
    <time>2012-05-17T08:57:09Z</time>
   </trkpt>
   <trkpt lat="53.142699" lon="8.908223">
    <ele>-3.390</ele>
    <time>2012-05-17T08:57:18Z</time>
   </trkpt>
   <trkpt lat="53.142942" lon="8.908479">
    <ele>-3.358</ele>
    <time>2012-05-17T08:57:26Z</time>
   </trkpt>
   <trkpt lat="53.143154" lon="8.908832">
    <ele>-3.466</ele>
    <time>2012-05-17T08:57:36Z</time>
   </trkpt>
   <trkpt lat="53.143332" lon="8.909146">
    <ele>-4.418</ele>
    <time>2012-05-17T08:57:44Z</time>
   </trkpt>
   <trkpt lat="53.143602" lon="8.909510">
    <ele>-4.138</ele>
    <time>2012-05-17T08:57:53Z</time>
   </trkpt>
   <trkpt lat="53.143786" lon="8.909635">
    <ele>-4.218</ele>
    <time>2012-05-17T08:58:00Z</time>
   </trkpt>
   <trkpt lat="53.144003" lon="8.909731">
    <ele>-3.697</ele>
    <time>2012-05-17T08:58:07Z</time>
   </trkpt>
   <trkpt lat="53.144169" lon="8.909793">
    <ele>-4.041</ele>
    <time>2012-05-17T08:58:11Z</time>
   </trkpt>
   <trkpt lat="53.144386" lon="8.909818">
    <ele>-4.313</ele>
    <time>2012-05-17T08:58:16Z</time>
   </trkpt>
   <trkpt lat="53.144612" lon="8.909858">
    <ele>-3.803</ele>
    <time>2012-05-17T08:58:22Z</time>
   </trkpt>
   <trkpt lat="53.144806" lon="8.909885">
    <ele>-4.770</ele>
    <time>2012-05-17T08:58:27Z</time>
   </trkpt>
   <trkpt lat="53.145032" lon="8.909912">
    <ele>-4.075</ele>
    <time>2012-05-17T08:58:35Z</time>
   </trkpt>
   <trkpt lat="53.145508" lon="8.910020">
    <ele>-3.710</ele>
    <time>2012-05-17T08:58:42Z</time>
   </trkpt>
   <trkpt lat="53.145831" lon="8.910114">
    <ele>-3.229</ele>
    <time>2012-05-17T08:58:47Z</time>
   </trkpt>
   <trkpt lat="53.145955" lon="8.910149">
    <ele>-3.816</ele>
    <time>2012-05-17T08:58:50Z</time>
   </trkpt>
   <trkpt lat="53.146401" lon="8.910383">
    <ele>-3.126</ele>
    <time>2012-05-17T08:59:01Z</time>
   </trkpt>
   <trkpt lat="53.146498" lon="8.910469">
    <ele>-2.925</ele>
    <time>2012-05-17T08:59:04Z</time>
   </trkpt>
   <trkpt lat="53.146617" lon="8.910642">
    <ele>-3.528</ele>
    <time>2012-05-17T08:59:08Z</time>
   </trkpt>
   <trkpt lat="53.146897" lon="8.911201">
    <ele>-3.659</ele>
    <time>2012-05-17T08:59:18Z</time>
   </trkpt>
   <trkpt lat="53.147127" lon="8.911724">
    <ele>-3.727</ele>
    <time>2012-05-17T08:59:26Z</time>
   </trkpt>
   <trkpt lat="53.147237" lon="8.911979">
    <ele>-3.807</ele>
    <time>2012-05-17T08:59:30Z</time>
   </trkpt>
   <trkpt lat="53.147529" lon="8.912656">
    <ele>-4.389</ele>
    <time>2012-05-17T08:59:41Z</time>
   </trkpt>
   <trkpt lat="53.147666" lon="8.912973">
    <ele>-3.858</ele>
    <time>2012-05-17T08:59:46Z</time>
   </trkpt>
   <trkpt lat="53.147827" lon="8.913344">
    <ele>-4.708</ele>
    <time>2012-05-17T08:59:53Z</time>
   </trkpt>
   <trkpt lat="53.147856" lon="8.913412">
    <ele>-4.512</ele>
    <time>2012-05-17T08:59:54Z</time>
   </trkpt>
   <trkpt lat="53.148028" lon="8.913797">
    <ele>-4.113</ele>
    <time>2012-05-17T09:00:01Z</time>
   </trkpt>
   <trkpt lat="53.148170" lon="8.914117">
    <ele>-4.526</ele>
    <time>2012-05-17T09:00:08Z</time>
   </trkpt>
   <trkpt lat="53.148289" lon="8.914382">
    <ele>-4.570</ele>
    <time>2012-05-17T09:00:15Z</time>
   </trkpt>
   <trkpt lat="53.148390" lon="8.914610">
    <ele>-4.175</ele>
    <time>2012-05-17T09:00:21Z</time>
   </trkpt>
   <trkpt lat="53.148320" lon="8.915094">
    <ele>-4.255</ele>
    <time>2012-05-17T09:00:28Z</time>
   </trkpt>
   <trkpt lat="53.148286" lon="8.915148">
    <ele>-4.006</ele>
    <time>2012-05-17T09:00:30Z</time>
   </trkpt>
   <trkpt lat="53.148122" lon="8.915405">
    <ele>-4.132</ele>
    <time>2012-05-17T09:00:36Z</time>
   </trkpt>
   <trkpt lat="53.147925" lon="8.915747">
    <ele>-4.126</ele>
    <time>2012-05-17T09:00:43Z</time>
   </trkpt>
   <trkpt lat="53.147785" lon="8.915990">
    <ele>-4.219</ele>
    <time>2012-05-17T09:00:49Z</time>
   </trkpt>
   <trkpt lat="53.147646" lon="8.916231">
    <ele>-4.239</ele>
    <time>2012-05-17T09:00:53Z</time>
   </trkpt>
   <trkpt lat="53.147447" lon="8.916576">
    <ele>-4.193</ele>
    <time>2012-05-17T09:00:59Z</time>
   </trkpt>
   <trkpt lat="53.147276" lon="8.916873">
    <ele>-4.398</ele>
    <time>2012-05-17T09:01:05Z</time>
   </trkpt>
   <trkpt lat="53.147058" lon="8.917254">
    <ele>-4.475</ele>
    <time>2012-05-17T09:01:12Z</time>
   </trkpt>
   <trkpt lat="53.146863" lon="8.917556">
    <ele>-4.106</ele>
    <time>2012-05-17T09:01:19Z</time>
   </trkpt>
   <trkpt lat="53.146806" lon="8.917599">
    <ele>-3.948</ele>
    <time>2012-05-17T09:01:21Z</time>
   </trkpt>
   <trkpt lat="53.146708" lon="8.917579">
    <ele>-3.887</ele>
    <time>2012-05-17T09:01:25Z</time>
   </trkpt>
   <trkpt lat="53.146644" lon="8.917320">
    <ele>-3.976</ele>
    <time>2012-05-17T09:01:32Z</time>
   </trkpt>
   <trkpt lat="53.146590" lon="8.917099">
    <ele>-3.802</ele>
    <time>2012-05-17T09:01:37Z</time>
   </trkpt>
   <trkpt lat="53.146496" lon="8.916719">
    <ele>-4.498</ele>
    <time>2012-05-17T09:01:45Z</time>
   </trkpt>
   <trkpt lat="53.146399" lon="8.916325">
    <ele>-4.478</ele>
    <time>2012-05-17T09:01:52Z</time>
   </trkpt>
   <trkpt lat="53.146376" lon="8.916234">
    <ele>-4.435</ele>
    <time>2012-05-17T09:01:56Z</time>
   </trkpt>
   <trkpt lat="53.146327" lon="8.916035">
    <ele>-4.144</ele>
    <time>2012-05-17T09:02:02Z</time>
   </trkpt>
   <trkpt lat="53.146234" lon="8.915770">
    <ele>-4.100</ele>
    <time>2012-05-17T09:02:08Z</time>
   </trkpt>
   <trkpt lat="53.146234" lon="8.915770">
    <ele>-4.192</ele>
    <time>2012-05-17T09:02:09Z</time>
   </trkpt>
   <trkpt lat="53.145954" lon="8.915472">
    <ele>-4.211</ele>
    <time>2012-05-17T09:02:18Z</time>
   </trkpt>
   <trkpt lat="53.145766" lon="8.915297">
    <ele>-4.493</ele>
    <time>2012-05-17T09:02:25Z</time>
   </trkpt>
   <trkpt lat="53.145553" lon="8.915100">
    <ele>-4.311</ele>
    <time>2012-05-17T09:02:34Z</time>
   </trkpt>
   <trkpt lat="53.145361" lon="8.914916">
    <ele>-4.438</ele>
    <time>2012-05-17T09:02:40Z</time>
   </trkpt>
   <trkpt lat="53.145209" lon="8.914752">
    <ele>-4.475</ele>
    <time>2012-05-17T09:02:47Z</time>
   </trkpt>
   <trkpt lat="53.145032" lon="8.914560">
    <ele>-4.293</ele>
    <time>2012-05-17T09:02:55Z</time>
   </trkpt>
   <trkpt lat="53.144935" lon="8.914456">
    <ele>-4.382</ele>
    <time>2012-05-17T09:03:01Z</time>
   </trkpt>
   <trkpt lat="53.144935" lon="8.914456">
    <ele>-6.198</ele>
    <time>2012-05-17T09:03:17Z</time>
   </trkpt>
   <trkpt lat="53.144935" lon="8.914456">
    <ele>-4.375</ele>
    <time>2012-05-17T09:03:33Z</time>
   </trkpt>
   <trkpt lat="53.144598" lon="8.914123">
    <ele>-4.970</ele>
    <time>2012-05-17T09:04:49Z</time>
   </trkpt>
   <trkpt lat="53.144403" lon="8.913997">
    <ele>-5.414</ele>
    <time>2012-05-17T09:04:57Z</time>
   </trkpt>
   <trkpt lat="53.144042" lon="8.913870">
    <ele>-4.833</ele>
    <time>2012-05-17T09:05:04Z</time>
   </trkpt>
   <trkpt lat="53.143799" lon="8.913805">
    <ele>-5.044</ele>
    <time>2012-05-17T09:05:09Z</time>
   </trkpt>
   <trkpt lat="53.143745" lon="8.913796">
    <ele>-5.266</ele>
    <time>2012-05-17T09:05:10Z</time>
   </trkpt>
   <trkpt lat="53.143383" lon="8.913894">
    <ele>-5.504</ele>
    <time>2012-05-17T09:05:15Z</time>
   </trkpt>
   <trkpt lat="53.143170" lon="8.914066">
    <ele>-5.070</ele>
    <time>2012-05-17T09:05:19Z</time>
   </trkpt>
   <trkpt lat="53.142694" lon="8.914384">
    <ele>-5.457</ele>
    <time>2012-05-17T09:05:29Z</time>
   </trkpt>
   <trkpt lat="53.142583" lon="8.914443">
    <ele>-5.456</ele>
    <time>2012-05-17T09:05:32Z</time>
   </trkpt>
   <trkpt lat="53.142074" lon="8.914526">
    <ele>-5.709</ele>
    <time>2012-05-17T09:05:43Z</time>
   </trkpt>
   <trkpt lat="53.141644" lon="8.914601">
    <ele>-6.249</ele>
    <time>2012-05-17T09:05:52Z</time>
   </trkpt>
   <trkpt lat="53.141312" lon="8.914672">
    <ele>-6.260</ele>
    <time>2012-05-17T09:05:59Z</time>
   </trkpt>
   <trkpt lat="53.141183" lon="8.914686">
    <ele>-6.056</ele>
    <time>2012-05-17T09:06:02Z</time>
   </trkpt>
   <trkpt lat="53.141065" lon="8.914641">
    <ele>-6.170</ele>
    <time>2012-05-17T09:06:06Z</time>
   </trkpt>
   <trkpt lat="53.140953" lon="8.914597">
    <ele>-6.083</ele>
    <time>2012-05-17T09:06:11Z</time>
   </trkpt>
   <trkpt lat="53.140953" lon="8.914597">
    <ele>-5.916</ele>
    <time>2012-05-17T09:06:17Z</time>
   </trkpt>
   <trkpt lat="53.140953" lon="8.914597">
    <ele>-5.723</ele>
    <time>2012-05-17T09:06:20Z</time>
   </trkpt>
   <trkpt lat="53.140838" lon="8.914535">
    <ele>-5.882</ele>
    <time>2012-05-17T09:06:24Z</time>
   </trkpt>
   <trkpt lat="53.140753" lon="8.914682">
    <ele>-5.456</ele>
    <time>2012-05-17T09:06:30Z</time>
   </trkpt>
   <trkpt lat="53.140697" lon="8.914804">
    <ele>-5.810</ele>
    <time>2012-05-17T09:06:35Z</time>
   </trkpt>
   <trkpt lat="53.140448" lon="8.914401">
    <ele>-5.832</ele>
    <time>2012-05-17T09:06:44Z</time>
   </trkpt>
   <trkpt lat="53.140347" lon="8.914146">
    <ele>-5.805</ele>
    <time>2012-05-17T09:06:49Z</time>
   </trkpt>
   <trkpt lat="53.140259" lon="8.913889">
    <ele>-6.284</ele>
    <time>2012-05-17T09:06:55Z</time>
   </trkpt>
   <trkpt lat="53.140087" lon="8.914082">
    <ele>-6.493</ele>
    <time>2012-05-17T09:07:02Z</time>
   </trkpt>
   <trkpt lat="53.140069" lon="8.914306">
    <ele>-6.882</ele>
    <time>2012-05-17T09:07:06Z</time>
   </trkpt>
   <trkpt lat="53.140002" lon="8.914685">
    <ele>-7.415</ele>
    <time>2012-05-17T09:07:10Z</time>
   </trkpt>
   <trkpt lat="53.139884" lon="8.915098">
    <ele>-7.294</ele>
    <time>2012-05-17T09:07:16Z</time>
   </trkpt>
   <trkpt lat="53.139785" lon="8.915435">
    <ele>-7.539</ele>
    <time>2012-05-17T09:07:20Z</time>
   </trkpt>
   <trkpt lat="53.139573" lon="8.915993">
    <ele>-7.968</ele>
    <time>2012-05-17T09:07:28Z</time>
   </trkpt>
   <trkpt lat="53.139396" lon="8.916457">
    <ele>-7.566</ele>
    <time>2012-05-17T09:07:35Z</time>
   </trkpt>
   <trkpt lat="53.139310" lon="8.916682">
    <ele>-7.581</ele>
    <time>2012-05-17T09:07:39Z</time>
   </trkpt>
   <trkpt lat="53.139132" lon="8.916986">
    <ele>-7.460</ele>
    <time>2012-05-17T09:07:46Z</time>
   </trkpt>
   <trkpt lat="53.138916" lon="8.917316">
    <ele>-7.312</ele>
    <time>2012-05-17T09:07:54Z</time>
   </trkpt>
   <trkpt lat="53.138698" lon="8.917650">
    <ele>-7.242</ele>
    <time>2012-05-17T09:08:01Z</time>
   </trkpt>
   <trkpt lat="53.138595" lon="8.917809">
    <ele>-7.060</ele>
    <time>2012-05-17T09:08:06Z</time>
   </trkpt>
   <trkpt lat="53.138405" lon="8.917963">
    <ele>-7.144</ele>
    <time>2012-05-17T09:08:10Z</time>
   </trkpt>
   <trkpt lat="53.138340" lon="8.918018">
    <ele>-7.191</ele>
    <time>2012-05-17T09:08:13Z</time>
   </trkpt>
   <trkpt lat="53.138090" lon="8.917999">
    <ele>-7.430</ele>
    <time>2012-05-17T09:08:16Z</time>
   </trkpt>
   <trkpt lat="53.137761" lon="8.917632">
    <ele>-7.601</ele>
    <time>2012-05-17T09:08:25Z</time>
   </trkpt>
   <trkpt lat="53.137613" lon="8.917467">
    <ele>-7.905</ele>
    <time>2012-05-17T09:08:29Z</time>
   </trkpt>
   <trkpt lat="53.137456" lon="8.917292">
    <ele>-7.427</ele>
    <time>2012-05-17T09:08:33Z</time>
   </trkpt>
   <trkpt lat="53.137236" lon="8.917049">
    <ele>-7.915</ele>
    <time>2012-05-17T09:08:39Z</time>
   </trkpt>
   <trkpt lat="53.136997" lon="8.916794">
    <ele>-8.383</ele>
    <time>2012-05-17T09:08:46Z</time>
   </trkpt>
   <trkpt lat="53.136701" lon="8.916439">
    <ele>-7.613</ele>
    <time>2012-05-17T09:08:54Z</time>
   </trkpt>
   <trkpt lat="53.136586" lon="8.916298">
    <ele>-7.903</ele>
    <time>2012-05-17T09:08:57Z</time>
   </trkpt>
   <trkpt lat="53.136423" lon="8.916098">
    <ele>-8.048</ele>
    <time>2012-05-17T09:09:01Z</time>
   </trkpt>
   <trkpt lat="53.136107" lon="8.915717">
    <ele>-7.779</ele>
    <time>2012-05-17T09:09:09Z</time>
   </trkpt>
   <trkpt lat="53.135861" lon="8.915439">
    <ele>-7.884</ele>
    <time>2012-05-17T09:09:15Z</time>
   </trkpt>
   <trkpt lat="53.135786" lon="8.915358">
    <ele>-7.546</ele>
    <time>2012-05-17T09:09:17Z</time>
   </trkpt>
   <trkpt lat="53.135682" lon="8.915247">
    <ele>-7.354</ele>
    <time>2012-05-17T09:09:20Z</time>
   </trkpt>
   <trkpt lat="53.135175" lon="8.914709">
    <ele>-8.457</ele>
    <time>2012-05-17T09:09:34Z</time>
   </trkpt>
   <trkpt lat="53.134863" lon="8.914391">
    <ele>-7.979</ele>
    <time>2012-05-17T09:09:43Z</time>
   </trkpt>
   <trkpt lat="53.134619" lon="8.914143">
    <ele>-7.890</ele>
    <time>2012-05-17T09:09:49Z</time>
   </trkpt>
   <trkpt lat="53.134285" lon="8.913804">
    <ele>-8.809</ele>
    <time>2012-05-17T09:09:58Z</time>
   </trkpt>
   <trkpt lat="53.134035" lon="8.913548">
    <ele>-8.101</ele>
    <time>2012-05-17T09:10:05Z</time>
   </trkpt>
   <trkpt lat="53.133786" lon="8.913269">
    <ele>-7.879</ele>
    <time>2012-05-17T09:10:11Z</time>
   </trkpt>
   <trkpt lat="53.133556" lon="8.913103">
    <ele>-6.991</ele>
    <time>2012-05-17T09:10:18Z</time>
   </trkpt>
   <trkpt lat="53.133273" lon="8.912895">
    <ele>-7.296</ele>
    <time>2012-05-17T09:10:25Z</time>
   </trkpt>
   <trkpt lat="53.133273" lon="8.912895">
    <ele>-8.245</ele>
    <time>2012-05-17T09:10:30Z</time>
   </trkpt>
   <trkpt lat="53.133078" lon="8.912739">
    <ele>-8.243</ele>
    <time>2012-05-17T09:10:31Z</time>
   </trkpt>
   <trkpt lat="53.132723" lon="8.912455">
    <ele>-8.427</ele>
    <time>2012-05-17T09:10:39Z</time>
   </trkpt>
   <trkpt lat="53.132593" lon="8.912351">
    <ele>-8.541</ele>
    <time>2012-05-17T09:10:42Z</time>
   </trkpt>
   <trkpt lat="53.132423" lon="8.912214">
    <ele>-8.969</ele>
    <time>2012-05-17T09:10:46Z</time>
   </trkpt>
   <trkpt lat="53.132176" lon="8.912087">
    <ele>-7.977</ele>
    <time>2012-05-17T09:10:51Z</time>
   </trkpt>
   <trkpt lat="53.131752" lon="8.911982">
    <ele>-8.631</ele>
    <time>2012-05-17T09:10:59Z</time>
   </trkpt>
   <trkpt lat="53.131409" lon="8.911852">
    <ele>-9.003</ele>
    <time>2012-05-17T09:11:06Z</time>
   </trkpt>
   <trkpt lat="53.130913" lon="8.911479">
    <ele>-8.800</ele>
    <time>2012-05-17T09:11:17Z</time>
   </trkpt>
   <trkpt lat="53.130423" lon="8.911148">
    <ele>-9.549</ele>
    <time>2012-05-17T09:11:28Z</time>
   </trkpt>
   <trkpt lat="53.129805" lon="8.910731">
    <ele>-9.298</ele>
    <time>2012-05-17T09:11:43Z</time>
   </trkpt>
   <trkpt lat="53.129433" lon="8.910480">
    <ele>-9.201</ele>
    <time>2012-05-17T09:11:52Z</time>
   </trkpt>
   <trkpt lat="53.129024" lon="8.910203">
    <ele>-9.634</ele>
    <time>2012-05-17T09:12:02Z</time>
   </trkpt>
   <trkpt lat="53.128698" lon="8.909981">
    <ele>-8.994</ele>
    <time>2012-05-17T09:12:11Z</time>
   </trkpt>
   <trkpt lat="53.128478" lon="8.909791">
    <ele>-8.317</ele>
    <time>2012-05-17T09:12:19Z</time>
   </trkpt>
   <trkpt lat="53.128111" lon="8.909461">
    <ele>-6.977</ele>
    <time>2012-05-17T09:12:29Z</time>
   </trkpt>
   <trkpt lat="53.127774" lon="8.909100">
    <ele>-6.250</ele>
    <time>2012-05-17T09:12:38Z</time>
   </trkpt>
   <trkpt lat="53.127491" lon="8.908825">
    <ele>-7.395</ele>
    <time>2012-05-17T09:12:47Z</time>
   </trkpt>
   <trkpt lat="53.127346" lon="8.908705">
    <ele>-7.598</ele>
    <time>2012-05-17T09:12:51Z</time>
   </trkpt>
   <trkpt lat="53.127182" lon="8.908579">
    <ele>-8.011</ele>
    <time>2012-05-17T09:12:56Z</time>
   </trkpt>
   <trkpt lat="53.127086" lon="8.908669">
    <ele>-8.251</ele>
    <time>2012-05-17T09:12:57Z</time>
   </trkpt>
   <trkpt lat="53.127008" lon="8.908787">
    <ele>-7.922</ele>
    <time>2012-05-17T09:13:03Z</time>
   </trkpt>
   <trkpt lat="53.126866" lon="8.909004">
    <ele>-8.443</ele>
    <time>2012-05-17T09:13:09Z</time>
   </trkpt>
   <trkpt lat="53.126795" lon="8.909112">
    <ele>-8.782</ele>
    <time>2012-05-17T09:13:13Z</time>
   </trkpt>
   <trkpt lat="53.126523" lon="8.909514">
    <ele>-8.142</ele>
    <time>2012-05-17T09:13:20Z</time>
   </trkpt>
   <trkpt lat="53.126288" lon="8.909726">
    <ele>-8.667</ele>
    <time>2012-05-17T09:13:26Z</time>
   </trkpt>
   <trkpt lat="53.126122" lon="8.909875">
    <ele>-8.769</ele>
    <time>2012-05-17T09:13:31Z</time>
   </trkpt>
   <trkpt lat="53.125939" lon="8.910058">
    <ele>-8.549</ele>
    <time>2012-05-17T09:13:36Z</time>
   </trkpt>
   <trkpt lat="53.125759" lon="8.910222">
    <ele>-8.926</ele>
    <time>2012-05-17T09:13:41Z</time>
   </trkpt>
   <trkpt lat="53.125613" lon="8.910116">
    <ele>-8.413</ele>
    <time>2012-05-17T09:13:45Z</time>
   </trkpt>
   <trkpt lat="53.125508" lon="8.909617">
    <ele>-8.203</ele>
    <time>2012-05-17T09:13:54Z</time>
   </trkpt>
   <trkpt lat="53.125548" lon="8.909279">
    <ele>-8.293</ele>
    <time>2012-05-17T09:14:01Z</time>
   </trkpt>
   <trkpt lat="53.125533" lon="8.908819">
    <ele>-7.452</ele>
    <time>2012-05-17T09:14:09Z</time>
   </trkpt>
   <trkpt lat="53.125505" lon="8.908343">
    <ele>-7.049</ele>
    <time>2012-05-17T09:14:19Z</time>
   </trkpt>
   <trkpt lat="53.125469" lon="8.908058">
    <ele>-7.728</ele>
    <time>2012-05-17T09:14:25Z</time>
   </trkpt>
   <trkpt lat="53.125262" lon="8.907949">
    <ele>-8.076</ele>
    <time>2012-05-17T09:14:32Z</time>
   </trkpt>
   <trkpt lat="53.125232" lon="8.907933">
    <ele>-8.203</ele>
    <time>2012-05-17T09:14:33Z</time>
   </trkpt>
   <trkpt lat="53.125096" lon="8.907976">
    <ele>-7.655</ele>
    <time>2012-05-17T09:14:38Z</time>
   </trkpt>
   <trkpt lat="53.125022" lon="8.908303">
    <ele>-7.329</ele>
    <time>2012-05-17T09:14:45Z</time>
   </trkpt>
   <trkpt lat="53.124938" lon="8.908639">
    <ele>-7.087</ele>
    <time>2012-05-17T09:14:51Z</time>
   </trkpt>
   <trkpt lat="53.124826" lon="8.909089">
    <ele>-6.815</ele>
    <time>2012-05-17T09:15:00Z</time>
   </trkpt>
   <trkpt lat="53.124706" lon="8.909680">
    <ele>-6.952</ele>
    <time>2012-05-17T09:15:09Z</time>
   </trkpt>
   <trkpt lat="53.124553" lon="8.910254">
    <ele>-7.033</ele>
    <time>2012-05-17T09:15:18Z</time>
   </trkpt>
   <trkpt lat="53.124347" lon="8.910800">
    <ele>-6.973</ele>
    <time>2012-05-17T09:15:27Z</time>
   </trkpt>
   <trkpt lat="53.124100" lon="8.911471">
    <ele>-7.006</ele>
    <time>2012-05-17T09:15:38Z</time>
   </trkpt>
   <trkpt lat="53.123893" lon="8.911986">
    <ele>-7.020</ele>
    <time>2012-05-17T09:15:48Z</time>
   </trkpt>
   <trkpt lat="53.123715" lon="8.912530">
    <ele>-6.927</ele>
    <time>2012-05-17T09:15:58Z</time>
   </trkpt>
   <trkpt lat="53.123599" lon="8.912885">
    <ele>-6.608</ele>
    <time>2012-05-17T09:16:05Z</time>
   </trkpt>
   <trkpt lat="53.123519" lon="8.913141">
    <ele>-6.962</ele>
    <time>2012-05-17T09:16:10Z</time>
   </trkpt>
   <trkpt lat="53.123449" lon="8.913384">
    <ele>-6.492</ele>
    <time>2012-05-17T09:16:16Z</time>
   </trkpt>
   <trkpt lat="53.123403" lon="8.913710">
    <ele>-6.772</ele>
    <time>2012-05-17T09:16:22Z</time>
   </trkpt>
   <trkpt lat="53.123474" lon="8.914197">
    <ele>-6.864</ele>
    <time>2012-05-17T09:16:29Z</time>
   </trkpt>
   <trkpt lat="53.123510" lon="8.914618">
    <ele>-7.083</ele>
    <time>2012-05-17T09:16:35Z</time>
   </trkpt>
   <trkpt lat="53.123441" lon="8.914966">
    <ele>-7.084</ele>
    <time>2012-05-17T09:16:40Z</time>
   </trkpt>
   <trkpt lat="53.123306" lon="8.915313">
    <ele>-7.086</ele>
    <time>2012-05-17T09:16:44Z</time>
   </trkpt>
   <trkpt lat="53.123127" lon="8.915775">
    <ele>-6.949</ele>
    <time>2012-05-17T09:16:51Z</time>
   </trkpt>
   <trkpt lat="53.123112" lon="8.915814">
    <ele>-7.056</ele>
    <time>2012-05-17T09:16:52Z</time>
   </trkpt>
   <trkpt lat="53.122929" lon="8.916274">
    <ele>-6.785</ele>
    <time>2012-05-17T09:16:58Z</time>
   </trkpt>
   <trkpt lat="53.122768" lon="8.916674">
    <ele>-6.829</ele>
    <time>2012-05-17T09:17:05Z</time>
   </trkpt>
   <trkpt lat="53.122521" lon="8.917081">
    <ele>-6.919</ele>
    <time>2012-05-17T09:17:12Z</time>
   </trkpt>
   <trkpt lat="53.122325" lon="8.917232">
    <ele>-7.322</ele>
    <time>2012-05-17T09:17:17Z</time>
   </trkpt>
   <trkpt lat="53.122099" lon="8.917472">
    <ele>-7.140</ele>
    <time>2012-05-17T09:17:23Z</time>
   </trkpt>
   <trkpt lat="53.121868" lon="8.917575">
    <ele>-7.586</ele>
    <time>2012-05-17T09:17:27Z</time>
   </trkpt>
   <trkpt lat="53.121848" lon="8.917529">
    <ele>-7.587</ele>
    <time>2012-05-17T09:17:28Z</time>
   </trkpt>
   <trkpt lat="53.121613" lon="8.917023">
    <ele>-8.584</ele>
    <time>2012-05-17T09:17:37Z</time>
   </trkpt>
   <trkpt lat="53.121415" lon="8.916711">
    <ele>-8.674</ele>
    <time>2012-05-17T09:17:43Z</time>
   </trkpt>
   <trkpt lat="53.121187" lon="8.916449">
    <ele>-9.825</ele>
    <time>2012-05-17T09:17:49Z</time>
   </trkpt>
   <trkpt lat="53.120972" lon="8.916159">
    <ele>-10.005</ele>
    <time>2012-05-17T09:17:55Z</time>
   </trkpt>
   <trkpt lat="53.120752" lon="8.915840">
    <ele>-8.803</ele>
    <time>2012-05-17T09:18:01Z</time>
   </trkpt>
   <trkpt lat="53.120489" lon="8.915452">
    <ele>-9.091</ele>
    <time>2012-05-17T09:18:08Z</time>
   </trkpt>
   <trkpt lat="53.120397" lon="8.915316">
    <ele>-8.924</ele>
    <time>2012-05-17T09:18:11Z</time>
   </trkpt>
   <trkpt lat="53.120115" lon="8.914899">
    <ele>-8.689</ele>
    <time>2012-05-17T09:18:19Z</time>
   </trkpt>
   <trkpt lat="53.119934" lon="8.914631">
    <ele>-8.972</ele>
    <time>2012-05-17T09:18:24Z</time>
   </trkpt>
   <trkpt lat="53.119865" lon="8.914530">
    <ele>-8.917</ele>
    <time>2012-05-17T09:18:26Z</time>
   </trkpt>
   <trkpt lat="53.119666" lon="8.913850">
    <ele>-8.801</ele>
    <time>2012-05-17T09:18:35Z</time>
   </trkpt>
   <trkpt lat="53.119483" lon="8.913335">
    <ele>-8.651</ele>
    <time>2012-05-17T09:18:43Z</time>
   </trkpt>
   <trkpt lat="53.119433" lon="8.913217">
    <ele>-8.684</ele>
    <time>2012-05-17T09:18:48Z</time>
   </trkpt>
   <trkpt lat="53.119049" lon="8.912651">
    <ele>-8.981</ele>
    <time>2012-05-17T09:18:57Z</time>
   </trkpt>
   <trkpt lat="53.118984" lon="8.912556">
    <ele>-8.969</ele>
    <time>2012-05-17T09:18:59Z</time>
   </trkpt>
   <trkpt lat="53.118534" lon="8.911893">
    <ele>-8.686</ele>
    <time>2012-05-17T09:19:13Z</time>
   </trkpt>
   <trkpt lat="53.118340" lon="8.911608">
    <ele>-8.300</ele>
    <time>2012-05-17T09:19:20Z</time>
   </trkpt>
   <trkpt lat="53.118106" lon="8.911261">
    <ele>-9.304</ele>
    <time>2012-05-17T09:19:28Z</time>
   </trkpt>
   <trkpt lat="53.117805" lon="8.910814">
    <ele>-8.514</ele>
    <time>2012-05-17T09:19:38Z</time>
   </trkpt>
   <trkpt lat="53.117628" lon="8.910550">
    <ele>-8.973</ele>
    <time>2012-05-17T09:19:45Z</time>
   </trkpt>
   <trkpt lat="53.117431" lon="8.910258">
    <ele>-8.622</ele>
    <time>2012-05-17T09:19:53Z</time>
   </trkpt>
   <trkpt lat="53.117229" lon="8.909957">
    <ele>-8.651</ele>
    <time>2012-05-17T09:20:00Z</time>
   </trkpt>
   <trkpt lat="53.117011" lon="8.909632">
    <ele>-8.559</ele>
    <time>2012-05-17T09:20:08Z</time>
   </trkpt>
   <trkpt lat="53.116787" lon="8.909299">
    <ele>-8.507</ele>
    <time>2012-05-17T09:20:16Z</time>
   </trkpt>
   <trkpt lat="53.116592" lon="8.909009">
    <ele>-8.745</ele>
    <time>2012-05-17T09:20:24Z</time>
   </trkpt>
   <trkpt lat="53.116592" lon="8.909009">
    <ele>-8.725</ele>
    <time>2012-05-17T09:20:26Z</time>
   </trkpt>
   <trkpt lat="53.116660" lon="8.908683">
    <ele>-9.363</ele>
    <time>2012-05-17T09:20:35Z</time>
   </trkpt>
   <trkpt lat="53.116764" lon="8.908292">
    <ele>-8.601</ele>
    <time>2012-05-17T09:20:45Z</time>
   </trkpt>
   <trkpt lat="53.116880" lon="8.907854">
    <ele>-8.312</ele>
    <time>2012-05-17T09:20:55Z</time>
   </trkpt>
   <trkpt lat="53.117023" lon="8.907377">
    <ele>-8.490</ele>
    <time>2012-05-17T09:21:05Z</time>
   </trkpt>
   <trkpt lat="53.117131" lon="8.906985">
    <ele>-8.297</ele>
    <time>2012-05-17T09:21:13Z</time>
   </trkpt>
   <trkpt lat="53.117275" lon="8.906468">
    <ele>-8.413</ele>
    <time>2012-05-17T09:21:23Z</time>
   </trkpt>
   <trkpt lat="53.117376" lon="8.906114">
    <ele>-8.951</ele>
    <time>2012-05-17T09:21:29Z</time>
   </trkpt>
   <trkpt lat="53.117578" lon="8.905475">
    <ele>-9.261</ele>
    <time>2012-05-17T09:21:39Z</time>
   </trkpt>
   <trkpt lat="53.117649" lon="8.905108">
    <ele>-8.815</ele>
    <time>2012-05-17T09:21:45Z</time>
   </trkpt>
   <trkpt lat="53.117673" lon="8.904955">
    <ele>-7.970</ele>
    <time>2012-05-17T09:21:50Z</time>
   </trkpt>
   <trkpt lat="53.117673" lon="8.904955">
    <ele>-8.428</ele>
    <time>2012-05-17T09:21:55Z</time>
   </trkpt>
   <trkpt lat="53.117664" lon="8.904636">
    <ele>-8.484</ele>
    <time>2012-05-17T09:21:59Z</time>
   </trkpt>
   <trkpt lat="53.117487" lon="8.904399">
    <ele>-8.446</ele>
    <time>2012-05-17T09:22:07Z</time>
   </trkpt>
   <trkpt lat="53.117268" lon="8.904093">
    <ele>-8.008</ele>
    <time>2012-05-17T09:22:15Z</time>
   </trkpt>
   <trkpt lat="53.116988" lon="8.903676">
    <ele>-7.920</ele>
    <time>2012-05-17T09:22:24Z</time>
   </trkpt>
   <trkpt lat="53.116681" lon="8.903199">
    <ele>-8.525</ele>
    <time>2012-05-17T09:22:33Z</time>
   </trkpt>
   <trkpt lat="53.116386" lon="8.902756">
    <ele>-8.404</ele>
    <time>2012-05-17T09:22:43Z</time>
   </trkpt>
   <trkpt lat="53.116020" lon="8.902178">
    <ele>-8.390</ele>
    <time>2012-05-17T09:22:55Z</time>
   </trkpt>
   <trkpt lat="53.115712" lon="8.901474">
    <ele>-8.863</ele>
    <time>2012-05-17T09:23:07Z</time>
   </trkpt>
   <trkpt lat="53.115610" lon="8.901169">
    <ele>-8.366</ele>
    <time>2012-05-17T09:23:13Z</time>
   </trkpt>
   <trkpt lat="53.115730" lon="8.900842">
    <ele>-8.223</ele>
    <time>2012-05-17T09:23:18Z</time>
   </trkpt>
   <trkpt lat="53.115949" lon="8.900628">
    <ele>-8.616</ele>
    <time>2012-05-17T09:23:26Z</time>
   </trkpt>
   <trkpt lat="53.116131" lon="8.900360">
    <ele>-8.667</ele>
    <time>2012-05-17T09:23:32Z</time>
   </trkpt>
   <trkpt lat="53.116455" lon="8.899793">
    <ele>-8.007</ele>
    <time>2012-05-17T09:23:43Z</time>
   </trkpt>
   <trkpt lat="53.116578" lon="8.899558">
    <ele>-8.512</ele>
    <time>2012-05-17T09:23:48Z</time>
   </trkpt>
   <trkpt lat="53.116744" lon="8.899239">
    <ele>-8.568</ele>
    <time>2012-05-17T09:23:54Z</time>
   </trkpt>
   <trkpt lat="53.116886" lon="8.899001">
    <ele>-8.701</ele>
    <time>2012-05-17T09:23:59Z</time>
   </trkpt>
   <trkpt lat="53.117051" lon="8.898689">
    <ele>-8.393</ele>
    <time>2012-05-17T09:24:05Z</time>
   </trkpt>
   <trkpt lat="53.117252" lon="8.898387">
    <ele>-8.615</ele>
    <time>2012-05-17T09:24:11Z</time>
   </trkpt>
   <trkpt lat="53.117471" lon="8.898091">
    <ele>-8.810</ele>
    <time>2012-05-17T09:24:18Z</time>
   </trkpt>
   <trkpt lat="53.117553" lon="8.897980">
    <ele>-8.601</ele>
    <time>2012-05-17T09:24:21Z</time>
   </trkpt>
   <trkpt lat="53.117578" lon="8.897672">
    <ele>-8.395</ele>
    <time>2012-05-17T09:24:26Z</time>
   </trkpt>
   <trkpt lat="53.117252" lon="8.897346">
    <ele>-9.023</ele>
    <time>2012-05-17T09:24:35Z</time>
   </trkpt>
   <trkpt lat="53.117213" lon="8.897306">
    <ele>-9.022</ele>
    <time>2012-05-17T09:24:36Z</time>
   </trkpt>
   <trkpt lat="53.116832" lon="8.896925">
    <ele>-9.067</ele>
    <time>2012-05-17T09:24:46Z</time>
   </trkpt>
   <trkpt lat="53.116477" lon="8.896574">
    <ele>-8.993</ele>
    <time>2012-05-17T09:24:56Z</time>
   </trkpt>
   <trkpt lat="53.116222" lon="8.896321">
    <ele>-9.382</ele>
    <time>2012-05-17T09:25:04Z</time>
   </trkpt>
   <trkpt lat="53.116041" lon="8.896142">
    <ele>-8.595</ele>
    <time>2012-05-17T09:25:12Z</time>
   </trkpt>
   <trkpt lat="53.116033" lon="8.896134">
    <ele>-8.908</ele>
    <time>2012-05-17T09:25:18Z</time>
   </trkpt>
   <trkpt lat="53.116033" lon="8.896134">
    <ele>-8.984</ele>
    <time>2012-05-17T09:27:58Z</time>
   </trkpt>
   <trkpt lat="53.116033" lon="8.896134">
    <ele>-8.148</ele>
    <time>2012-05-17T09:28:32Z</time>
   </trkpt>
   <trkpt lat="53.116033" lon="8.896134">
    <ele>-8.335</ele>
    <time>2012-05-17T09:29:26Z</time>
   </trkpt>
   <trkpt lat="53.116033" lon="8.896134">
    <ele>-7.982</ele>
    <time>2012-05-17T09:29:45Z</time>
   </trkpt>
   <trkpt lat="53.116033" lon="8.896134">
    <ele>-8.818</ele>
    <time>2012-05-17T09:30:03Z</time>
   </trkpt>
   <trkpt lat="53.116033" lon="8.896134">
    <ele>-8.830</ele>
    <time>2012-05-17T09:30:26Z</time>
   </trkpt>
   <trkpt lat="53.116033" lon="8.896134">
    <ele>-9.169</ele>
    <time>2012-05-17T09:30:53Z</time>
   </trkpt>
   <trkpt lat="53.116033" lon="8.896134">
    <ele>-8.992</ele>
    <time>2012-05-17T09:31:12Z</time>
   </trkpt>
  </trkseg>
 </trk>
 <trk>
  <name>ACTIVE LOG113207</name>
  <trkseg>
   <trkpt lat="53.115861" lon="8.896398">
    <ele>-8.512</ele>
    <time>2012-05-17T09:32:07Z</time>
   </trkpt>
  </trkseg>
 </trk>
</gpx>
